sensor_id;sensor_type;location;lat;lon;timestamp;pressure;altitude;pressure_sealevel;temperature;humidity
12897;BME280;6516;35.028;32.372;2022-09-20T00:01:13;99479.84;;;22.16;86.36
12897;BME280;6516;35.028;32.372;2022-09-20T00:03:44;99482.41;;;22.18;86.89
12897;BME280;6516;35.028;32.372;2022-09-20T00:06:14;99478.91;;;22.17;86.43
12897;BME280;6516;35.028;32.372;2022-09-20T00:08:43;99473.66;;;22.16;86.15
12897;BME280;6516;35.028;32.372;2022-09-20T00:11:13;99476.56;;;22.13;86.26
12897;BME280;6516;35.028;32.372;2022-09-20T00:13:44;99472.06;;;22.13;85.90
12897;BME280;6516;35.028;32.372;2022-09-20T00:16:14;99471.56;;;22.08;86.42
12897;BME280;6516;35.028;32.372;2022-09-20T00:18:48;99465.66;;;22.03;86.44
12897;BME280;6516;35.028;32.372;2022-09-20T00:21:17;99471.78;;;22.05;86.74
12897;BME280;6516;35.028;32.372;2022-09-20T00:23:46;99462.13;;;22.03;86.34
12897;BME280;6516;35.028;32.372;2022-09-20T00:26:14;99463.44;;;21.97;86.46
12897;BME280;6516;35.028;32.372;2022-09-20T00:28:42;99463.22;;;22.00;86.44
12897;BME280;6516;35.028;32.372;2022-09-20T00:31:12;99465.16;;;21.98;86.56
12897;BME280;6516;35.028;32.372;2022-09-20T00:33:39;99457.47;;;21.94;86.26
12897;BME280;6516;35.028;32.372;2022-09-20T00:36:26;99459.06;;;21.96;85.92
12897;BME280;6516;35.028;32.372;2022-09-20T00:38:54;99461.97;;;21.93;86.47
12897;BME280;6516;35.028;32.372;2022-09-20T00:41:23;99457.69;;;21.91;86.12
12897;BME280;6516;35.028;32.372;2022-09-20T00:43:51;99452.44;;;21.89;86.65
12897;BME280;6516;35.028;32.372;2022-09-20T00:46:23;99452.56;;;21.88;86.57
12897;BME280;6516;35.028;32.372;2022-09-20T00:48:57;99448.06;;;21.88;86.58
12897;BME280;6516;35.028;32.372;2022-09-20T00:51:31;99452.84;;;21.96;86.21
12897;BME280;6516;35.028;32.372;2022-09-20T00:54:03;99458.94;;;21.98;85.72
12897;BME280;6516;35.028;32.372;2022-09-20T00:56:35;99450.63;;;21.90;85.34
12897;BME280;6516;35.028;32.372;2022-09-20T00:59:13;99449.13;;;21.86;85.81
12897;BME280;6516;35.028;32.372;2022-09-20T01:01:43;99452.38;;;21.78;85.73
12897;BME280;6516;35.028;32.372;2022-09-20T01:04:15;99446.75;;;21.70;85.92
12897;BME280;6516;35.028;32.372;2022-09-20T01:06:45;99443.63;;;21.64;85.84
12897;BME280;6516;35.028;32.372;2022-09-20T01:09:13;99446.88;;;21.56;86.55
12897;BME280;6516;35.028;32.372;2022-09-20T01:11:41;99448.72;;;21.56;86.61
12897;BME280;6516;35.028;32.372;2022-09-20T01:14:12;99453.66;;;21.49;87.14
12897;BME280;6516;35.028;32.372;2022-09-20T01:16:40;99450.44;;;21.44;87.04
12897;BME280;6516;35.028;32.372;2022-09-20T01:19:17;99443.72;;;21.39;86.98
12897;BME280;6516;35.028;32.372;2022-09-20T01:21:50;99445.44;;;21.40;87.91
12897;BME280;6516;35.028;32.372;2022-09-20T01:24:21;99447.13;;;21.41;87.94
12897;BME280;6516;35.028;32.372;2022-09-20T01:27:12;99439.97;;;21.41;88.27
12897;BME280;6516;35.028;32.372;2022-09-20T01:29:56;99437.81;;;21.46;87.68
12897;BME280;6516;35.028;32.372;2022-09-20T01:32:39;99431.25;;;21.50;87.77
12897;BME280;6516;35.028;32.372;2022-09-20T01:35:11;99431.16;;;21.52;88.00
12897;BME280;6516;35.028;32.372;2022-09-20T01:37:49;99428.22;;;21.55;87.96
12897;BME280;6516;35.028;32.372;2022-09-20T01:40:31;99426.31;;;21.57;87.18
12897;BME280;6516;35.028;32.372;2022-09-20T01:43:07;99428.75;;;21.60;87.73
12897;BME280;6516;35.028;32.372;2022-09-20T01:45:45;99434.25;;;21.58;87.12
12897;BME280;6516;35.028;32.372;2022-09-20T01:48:21;99428.97;;;21.57;87.16
12897;BME280;6516;35.028;32.372;2022-09-20T01:54:29;99434.84;;;21.62;87.89
12897;BME280;6516;35.028;32.372;2022-09-20T01:57:41;99427.97;;;21.70;87.89
12897;BME280;6516;35.028;32.372;2022-09-20T02:00:19;99422.50;;;21.72;87.54
12897;BME280;6516;35.028;32.372;2022-09-20T02:03:12;99432.38;;;21.71;87.49
12897;BME280;6516;35.028;32.372;2022-09-20T02:06:19;99426.16;;;21.71;86.99
12897;BME280;6516;35.028;32.372;2022-09-20T02:09:12;99430.72;;;21.69;87.37
12897;BME280;6516;35.028;32.372;2022-09-20T02:11:58;99424.53;;;21.68;87.16
12897;BME280;6516;35.028;32.372;2022-09-20T02:14:48;99421.34;;;21.63;87.48
12897;BME280;6516;35.028;32.372;2022-09-20T02:17:29;99425.84;;;21.63;87.02
12897;BME280;6516;35.028;32.372;2022-09-20T02:20:14;99427.78;;;21.61;87.39
12897;BME280;6516;35.028;32.372;2022-09-20T02:23:09;99427.38;;;21.54;86.87
12897;BME280;6516;35.028;32.372;2022-09-20T02:25:52;99431.69;;;21.44;87.18
12897;BME280;6516;35.028;32.372;2022-09-20T02:28:39;99429.69;;;21.35;87.79
12897;BME280;6516;35.028;32.372;2022-09-20T02:31:20;99425.31;;;21.34;88.75
12897;BME280;6516;35.028;32.372;2022-09-20T02:34:12;99430.13;;;21.29;89.30
12897;BME280;6516;35.028;32.372;2022-09-20T02:37:19;99431.44;;;21.24;89.02
12897;BME280;6516;35.028;32.372;2022-09-20T02:40:19;99439.59;;;21.22;89.20
12897;BME280;6516;35.028;32.372;2022-09-20T02:43:02;99434.25;;;21.22;90.20
12897;BME280;6516;35.028;32.372;2022-09-20T02:45:41;99439.72;;;21.21;89.66
12897;BME280;6516;35.028;32.372;2022-09-20T02:48:16;99435.13;;;21.10;88.54
12897;BME280;6516;35.028;32.372;2022-09-20T02:50:55;99439.31;;;21.02;89.62
12897;BME280;6516;35.028;32.372;2022-09-20T02:53:36;99441.22;;;21.00;89.56
12897;BME280;6516;35.028;32.372;2022-09-20T02:56:13;99445.31;;;20.93;90.22
12897;BME280;6516;35.028;32.372;2022-09-20T02:58:51;99443.59;;;20.92;90.63
12897;BME280;6516;35.028;32.372;2022-09-20T03:01:31;99432.06;;;20.91;91.44
12897;BME280;6516;35.028;32.372;2022-09-20T03:04:20;99442.53;;;20.94;91.67
12897;BME280;6516;35.028;32.372;2022-09-20T03:06:57;99435.25;;;20.96;91.38
12897;BME280;6516;35.028;32.372;2022-09-20T03:09:37;99442.31;;;20.97;91.21
12897;BME280;6516;35.028;32.372;2022-09-20T03:12:18;99442.22;;;20.99;91.87
12897;BME280;6516;35.028;32.372;2022-09-20T03:14:59;99440.59;;;20.96;91.75
12897;BME280;6516;35.028;32.372;2022-09-20T03:17:41;99439.75;;;20.96;91.33
12897;BME280;6516;35.028;32.372;2022-09-20T03:20:25;99444.25;;;20.95;91.59
12897;BME280;6516;35.028;32.372;2022-09-20T03:23:02;99451.53;;;20.93;91.13
12897;BME280;6516;35.028;32.372;2022-09-20T03:25:52;99449.81;;;20.92;91.08
12897;BME280;6516;35.028;32.372;2022-09-20T03:28:35;99451.63;;;20.92;91.58
12897;BME280;6516;35.028;32.372;2022-09-20T03:31:21;99441.97;;;20.89;91.14
12897;BME280;6516;35.028;32.372;2022-09-20T03:34:02;99446.41;;;20.90;91.50
12897;BME280;6516;35.028;32.372;2022-09-20T03:36:46;99443.59;;;20.92;91.75
12897;BME280;6516;35.028;32.372;2022-09-20T03:39:37;99449.09;;;20.90;91.91
12897;BME280;6516;35.028;32.372;2022-09-20T03:42:17;99449.91;;;20.91;91.59
12897;BME280;6516;35.028;32.372;2022-09-20T03:51:20;99456.66;;;20.96;91.88
12897;BME280;6516;35.028;32.372;2022-09-20T03:54:41;99455.25;;;21.03;91.58
12897;BME280;6516;35.028;32.372;2022-09-20T04:00:36;99460.28;;;21.08;90.85
12897;BME280;6516;35.028;32.372;2022-09-20T04:03:25;99464.56;;;21.10;90.87
12897;BME280;6516;35.028;32.372;2022-09-20T04:06:12;99453.41;;;21.16;91.05
12897;BME280;6516;35.028;32.372;2022-09-20T04:09:25;99465.31;;;21.25;91.13
12897;BME280;6516;35.028;32.372;2022-09-20T04:12:04;99457.69;;;21.31;90.39
12897;BME280;6516;35.028;32.372;2022-09-20T04:14:43;99456.66;;;21.45;90.61
12897;BME280;6516;35.028;32.372;2022-09-20T04:17:26;99454.81;;;21.58;90.45
12897;BME280;6516;35.028;32.372;2022-09-20T04:20:02;99460.75;;;21.74;90.10
12897;BME280;6516;35.028;32.372;2022-09-20T04:22:33;99463.81;;;21.93;89.88
12897;BME280;6516;35.028;32.372;2022-09-20T04:25:04;99468.13;;;22.06;89.26
12897;BME280;6516;35.028;32.372;2022-09-20T04:27:42;99472.09;;;22.24;88.42
12897;BME280;6516;35.028;32.372;2022-09-20T04:30:17;99474.13;;;22.44;87.68
12897;BME280;6516;35.028;32.372;2022-09-20T04:32:50;99471.00;;;22.61;87.17
12897;BME280;6516;35.028;32.372;2022-09-20T04:35:35;99470.31;;;22.81;85.96
12897;BME280;6516;35.028;32.372;2022-09-20T04:38:25;99472.53;;;23.09;84.71
12897;BME280;6516;35.028;32.372;2022-09-20T04:41:22;99475.00;;;23.45;84.49
12897;BME280;6516;35.028;32.372;2022-09-20T04:44:30;99469.53;;;23.89;81.55
12897;BME280;6516;35.028;32.372;2022-09-20T04:48:04;99465.88;;;24.22;79.33
12897;BME280;6516;35.028;32.372;2022-09-20T04:58:35;99458.78;;;25.03;76.29
12897;BME280;6516;35.028;32.372;2022-09-20T05:04:58;99454.91;;;25.56;72.57
12897;BME280;6516;35.028;32.372;2022-09-20T05:11:39;99451.75;;;26.09;68.46
12897;BME280;6516;35.028;32.372;2022-09-20T05:14:33;99458.84;;;26.39;66.69
12897;BME280;6516;35.028;32.372;2022-09-20T05:17:18;99453.84;;;26.53;65.34
12897;BME280;6516;35.028;32.372;2022-09-20T05:20:10;99453.72;;;26.74;65.07
12897;BME280;6516;35.028;32.372;2022-09-20T05:23:11;99455.63;;;27.00;63.91
12897;BME280;6516;35.028;32.372;2022-09-20T05:26:12;99453.88;;;27.19;62.56
12897;BME280;6516;35.028;32.372;2022-09-20T05:28:52;99443.31;;;27.15;61.68
12897;BME280;6516;35.028;32.372;2022-09-20T05:31:31;99447.69;;;27.36;61.80
12897;BME280;6516;35.028;32.372;2022-09-20T05:34:13;99453.53;;;27.58;61.54
12897;BME280;6516;35.028;32.372;2022-09-20T05:36:54;99445.91;;;27.71;60.07
12897;BME280;6516;35.028;32.372;2022-09-20T05:39:32;99448.28;;;27.84;58.40
12897;BME280;6516;35.028;32.372;2022-09-20T05:42:17;99453.63;;;28.11;58.88
12897;BME280;6516;35.028;32.372;2022-09-20T05:45:04;99450.63;;;28.14;57.07
12897;BME280;6516;35.028;32.372;2022-09-20T05:47:51;99447.44;;;28.36;56.33
12897;BME280;6516;35.028;32.372;2022-09-20T05:50:38;99448.56;;;28.43;53.67
12897;BME280;6516;35.028;32.372;2022-09-20T05:56:45;99450.97;;;28.71;53.60
12897;BME280;6516;35.028;32.372;2022-09-20T05:59:28;99459.75;;;28.91;52.94
12897;BME280;6516;35.028;32.372;2022-09-20T06:02:19;99448.59;;;29.19;51.65
12897;BME280;6516;35.028;32.372;2022-09-20T06:05:00;99457.50;;;29.37;51.00
12897;BME280;6516;35.028;32.372;2022-09-20T06:07:59;99456.97;;;29.67;49.92
12897;BME280;6516;35.028;32.372;2022-09-20T06:10:54;99451.47;;;29.93;49.36
12897;BME280;6516;35.028;32.372;2022-09-20T06:13:47;99458.28;;;30.05;49.29
12897;BME280;6516;35.028;32.372;2022-09-20T06:16:39;99454.38;;;29.99;48.32
12897;BME280;6516;35.028;32.372;2022-09-20T06:19:18;99456.97;;;30.33;47.66
12897;BME280;6516;35.028;32.372;2022-09-20T06:21:54;99455.63;;;30.45;47.28
12897;BME280;6516;35.028;32.372;2022-09-20T06:24:37;99448.53;;;30.68;47.00
12897;BME280;6516;35.028;32.372;2022-09-20T06:27:13;99462.59;;;30.63;45.91
12897;BME280;6516;35.028;32.372;2022-09-20T06:29:48;99461.56;;;30.96;46.00
12897;BME280;6516;35.028;32.372;2022-09-20T06:32:18;99466.47;;;31.01;45.10
12897;BME280;6516;35.028;32.372;2022-09-20T06:34:46;99460.69;;;31.12;45.36
12897;BME280;6516;35.028;32.372;2022-09-20T06:37:27;99457.59;;;31.39;44.25
12897;BME280;6516;35.028;32.372;2022-09-20T06:40:30;99455.53;;;31.41;43.97
12897;BME280;6516;35.028;32.372;2022-09-20T06:43:19;99467.00;;;31.67;42.64
12897;BME280;6516;35.028;32.372;2022-09-20T06:45:47;99464.53;;;31.88;43.06
12897;BME280;6516;35.028;32.372;2022-09-20T06:48:15;99455.34;;;32.11;41.31
12897;BME280;6516;35.028;32.372;2022-09-20T06:50:44;99453.38;;;32.28;40.88
12897;BME280;6516;35.028;32.372;2022-09-20T06:53:15;99459.06;;;32.18;40.43
12897;BME280;6516;35.028;32.372;2022-09-20T06:55:46;99458.66;;;32.52;39.50
12897;BME280;6516;35.028;32.372;2022-09-20T06:58:14;99466.03;;;32.66;38.96
12897;BME280;6516;35.028;32.372;2022-09-20T07:00:44;99464.59;;;32.78;38.20
12897;BME280;6516;35.028;32.372;2022-09-20T07:03:11;99459.16;;;32.92;38.92
12897;BME280;6516;35.028;32.372;2022-09-20T07:05:39;99469.94;;;33.08;38.68
12897;BME280;6516;35.028;32.372;2022-09-20T07:08:07;99465.97;;;33.11;38.85
12897;BME280;6516;35.028;32.372;2022-09-20T07:10:35;99470.97;;;33.07;39.27
12897;BME280;6516;35.028;32.372;2022-09-20T07:13:04;99480.72;;;32.87;39.23
12897;BME280;6516;35.028;32.372;2022-09-20T07:15:33;99477.09;;;33.09;38.88
12897;BME280;6516;35.028;32.372;2022-09-20T07:18:02;99471.72;;;33.16;38.06
12897;BME280;6516;35.028;32.372;2022-09-20T07:20:30;99475.81;;;33.34;38.84
12897;BME280;6516;35.028;32.372;2022-09-20T07:22:58;99476.31;;;33.15;38.33
12897;BME280;6516;35.028;32.372;2022-09-20T07:25:27;99474.34;;;33.09;39.20
12897;BME280;6516;35.028;32.372;2022-09-20T07:27:55;99479.56;;;33.19;37.97
12897;BME280;6516;35.028;32.372;2022-09-20T07:30:23;99470.53;;;33.47;37.65
12897;BME280;6516;35.028;32.372;2022-09-20T07:32:50;99474.47;;;33.45;37.63
12897;BME280;6516;35.028;32.372;2022-09-20T07:35:20;99476.25;;;33.23;38.24
12897;BME280;6516;35.028;32.372;2022-09-20T07:37:47;99472.53;;;33.39;37.33
12897;BME280;6516;35.028;32.372;2022-09-20T07:40:15;99467.53;;;33.57;36.74
12897;BME280;6516;35.028;32.372;2022-09-20T07:42:43;99462.25;;;33.85;35.72
12897;BME280;6516;35.028;32.372;2022-09-20T07:45:11;99461.50;;;34.12;35.72
12897;BME280;6516;35.028;32.372;2022-09-20T07:47:39;99462.63;;;34.17;35.95
12897;BME280;6516;35.028;32.372;2022-09-20T07:50:09;99467.44;;;34.15;35.38
12897;BME280;6516;35.028;32.372;2022-09-20T07:52:38;99462.31;;;34.48;35.55
12897;BME280;6516;35.028;32.372;2022-09-20T07:55:07;99470.59;;;34.54;35.87
12897;BME280;6516;35.028;32.372;2022-09-20T07:57:36;99470.81;;;34.53;36.49
12897;BME280;6516;35.028;32.372;2022-09-20T08:00:06;99467.53;;;34.64;36.21
12897;BME280;6516;35.028;32.372;2022-09-20T08:02:35;99454.75;;;34.29;38.68
12897;BME280;6516;35.028;32.372;2022-09-20T08:05:03;99449.94;;;34.52;37.91
12897;BME280;6516;35.028;32.372;2022-09-20T08:07:31;99455.91;;;34.34;37.58
12897;BME280;6516;35.028;32.372;2022-09-20T08:10:01;99449.00;;;34.38;37.59
12897;BME280;6516;35.028;32.372;2022-09-20T08:12:29;99449.25;;;34.43;37.02
12897;BME280;6516;35.028;32.372;2022-09-20T08:14:59;99451.25;;;33.99;38.61
12897;BME280;6516;35.028;32.372;2022-09-20T08:17:26;99437.47;;;34.43;38.41
12897;BME280;6516;35.028;32.372;2022-09-20T08:19:54;99435.72;;;34.56;37.86
12897;BME280;6516;35.028;32.372;2022-09-20T08:22:22;99425.94;;;34.75;37.09
12897;BME280;6516;35.028;32.372;2022-09-20T08:24:50;99418.28;;;34.64;37.86
12897;BME280;6516;35.028;32.372;2022-09-20T08:27:19;99415.56;;;34.64;37.07
12897;BME280;6516;35.028;32.372;2022-09-20T08:29:47;99425.50;;;34.71;36.63
12897;BME280;6516;35.028;32.372;2022-09-20T08:32:22;99420.06;;;34.50;37.18
12897;BME280;6516;35.028;32.372;2022-09-20T08:34:49;99419.16;;;34.64;37.32
12897;BME280;6516;35.028;32.372;2022-09-20T08:37:17;99407.22;;;34.72;36.75
12897;BME280;6516;35.028;32.372;2022-09-20T08:39:45;99418.75;;;34.25;39.43
12897;BME280;6516;35.028;32.372;2022-09-20T08:42:21;99414.34;;;34.24;40.56
12897;BME280;6516;35.028;32.372;2022-09-20T08:44:55;99416.63;;;34.63;39.38
12897;BME280;6516;35.028;32.372;2022-09-20T08:47:26;99403.44;;;34.52;39.73
12897;BME280;6516;35.028;32.372;2022-09-20T08:49:56;99407.16;;;34.02;40.68
12897;BME280;6516;35.028;32.372;2022-09-20T08:52:28;99409.13;;;33.29;43.04
12897;BME280;6516;35.028;32.372;2022-09-20T08:54:57;99415.59;;;32.84;42.74
12897;BME280;6516;35.028;32.372;2022-09-20T08:57:29;99410.34;;;32.97;43.74
12897;BME280;6516;35.028;32.372;2022-09-20T08:59:58;99409.41;;;33.19;43.55
12897;BME280;6516;35.028;32.372;2022-09-20T09:02:42;99405.22;;;33.46;43.16
12897;BME280;6516;35.028;32.372;2022-09-20T09:05:27;99405.25;;;33.82;42.52
12897;BME280;6516;35.028;32.372;2022-09-20T09:07:58;99401.47;;;33.83;40.42
12897;BME280;6516;35.028;32.372;2022-09-20T09:10:31;99410.16;;;34.07;41.22
12897;BME280;6516;35.028;32.372;2022-09-20T09:13:02;99401.16;;;33.92;42.28
12897;BME280;6516;35.028;32.372;2022-09-20T09:15:34;99404.69;;;33.72;42.46
12897;BME280;6516;35.028;32.372;2022-09-20T09:18:04;99404.47;;;33.73;43.02
12897;BME280;6516;35.028;32.372;2022-09-20T09:20:40;99404.44;;;34.02;43.03
12897;BME280;6516;35.028;32.372;2022-09-20T09:23:21;99404.91;;;33.91;42.56
12897;BME280;6516;35.028;32.372;2022-09-20T09:25:52;99398.44;;;33.92;42.96
12897;BME280;6516;35.028;32.372;2022-09-20T09:28:24;99391.66;;;33.73;42.65
12897;BME280;6516;35.028;32.372;2022-09-20T09:31:11;99400.06;;;33.72;42.12
12897;BME280;6516;35.028;32.372;2022-09-20T09:33:43;99386.81;;;33.54;42.19
12897;BME280;6516;35.028;32.372;2022-09-20T09:36:14;99389.97;;;33.72;39.34
12897;BME280;6516;35.028;32.372;2022-09-20T09:38:44;99384.38;;;33.45;39.12
12897;BME280;6516;35.028;32.372;2022-09-20T09:41:21;99383.22;;;33.54;40.01
12897;BME280;6516;35.028;32.372;2022-09-20T09:44:00;99383.16;;;33.47;36.37
12897;BME280;6516;35.028;32.372;2022-09-20T09:46:32;99388.22;;;33.65;39.30
12897;BME280;6516;35.028;32.372;2022-09-20T09:49:08;99378.44;;;33.56;37.99
12897;BME280;6516;35.028;32.372;2022-09-20T09:51:40;99371.94;;;33.42;35.80
12897;BME280;6516;35.028;32.372;2022-09-20T09:54:15;99370.19;;;33.06;40.35
12897;BME280;6516;35.028;32.372;2022-09-20T09:56:52;99364.34;;;33.23;41.58
12897;BME280;6516;35.028;32.372;2022-09-20T10:02:47;99368.69;;;32.89;41.97
12897;BME280;6516;35.028;32.372;2022-09-20T10:05:27;99356.22;;;32.72;42.70
12897;BME280;6516;35.028;32.372;2022-09-20T10:08:08;99353.09;;;32.60;43.91
12897;BME280;6516;35.028;32.372;2022-09-20T10:10:53;99348.56;;;32.53;42.37
12897;BME280;6516;35.028;32.372;2022-09-20T10:13:28;99357.78;;;32.52;43.74
12897;BME280;6516;35.028;32.372;2022-09-20T10:16:11;99353.56;;;32.64;43.75
12897;BME280;6516;35.028;32.372;2022-09-20T10:18:49;99362.19;;;32.90;43.80
12897;BME280;6516;35.028;32.372;2022-09-20T10:21:36;99361.34;;;33.33;43.18
12897;BME280;6516;35.028;32.372;2022-09-20T10:24:20;99350.59;;;33.17;41.98
12897;BME280;6516;35.028;32.372;2022-09-20T10:27:13;99350.78;;;33.15;41.89
12897;BME280;6516;35.028;32.372;2022-09-20T10:30:02;99348.13;;;33.22;43.71
12897;BME280;6516;35.028;32.372;2022-09-20T10:32:59;99356.91;;;32.88;43.23
12897;BME280;6516;35.028;32.372;2022-09-20T10:35:46;99356.44;;;32.85;43.47
12897;BME280;6516;35.028;32.372;2022-09-20T10:38:22;99355.50;;;33.07;41.47
12897;BME280;6516;35.028;32.372;2022-09-20T10:44:26;99342.63;;;33.30;42.96
12897;BME280;6516;35.028;32.372;2022-09-20T10:47:13;99350.72;;;32.94;43.38
12897;BME280;6516;35.028;32.372;2022-09-20T10:49:53;99358.97;;;32.86;44.05
12897;BME280;6516;35.028;32.372;2022-09-20T10:52:52;99346.94;;;32.95;44.79
12897;BME280;6516;35.028;32.372;2022-09-20T10:55:33;99347.72;;;32.89;43.91
12897;BME280;6516;35.028;32.372;2022-09-20T11:01:28;99356.00;;;32.59;43.92
12897;BME280;6516;35.028;32.372;2022-09-20T11:07:17;99355.72;;;32.39;44.75
12897;BME280;6516;35.028;32.372;2022-09-20T11:09:52;99348.66;;;32.00;44.87
12897;BME280;6516;35.028;32.372;2022-09-20T11:12:26;99356.41;;;32.33;44.09
12897;BME280;6516;35.028;32.372;2022-09-20T11:15:02;99355.59;;;32.33;43.93
12897;BME280;6516;35.028;32.372;2022-09-20T11:17:34;99360.72;;;32.28;45.74
12897;BME280;6516;35.028;32.372;2022-09-20T11:20:14;99360.41;;;32.23;44.96
12897;BME280;6516;35.028;32.372;2022-09-20T11:22:49;99357.53;;;32.76;45.02
12897;BME280;6516;35.028;32.372;2022-09-20T11:25:28;99353.78;;;32.62;42.59
12897;BME280;6516;35.028;32.372;2022-09-20T11:28:03;99364.81;;;32.46;45.09
12897;BME280;6516;35.028;32.372;2022-09-20T11:30:39;99368.63;;;32.74;43.97
12897;BME280;6516;35.028;32.372;2022-09-20T11:33:18;99354.19;;;33.03;44.55
12897;BME280;6516;35.028;32.372;2022-09-20T11:35:56;99352.41;;;32.95;43.55
12897;BME280;6516;35.028;32.372;2022-09-20T11:38:30;99356.50;;;32.62;44.21
12897;BME280;6516;35.028;32.372;2022-09-20T11:41:04;99364.34;;;32.43;45.32
12897;BME280;6516;35.028;32.372;2022-09-20T11:43:38;99348.66;;;32.45;45.85
12897;BME280;6516;35.028;32.372;2022-09-20T11:46:10;99351.16;;;32.32;45.81
12897;BME280;6516;35.028;32.372;2022-09-20T11:48:44;99350.59;;;32.14;45.15
12897;BME280;6516;35.028;32.372;2022-09-20T11:57:58;99350.28;;;31.94;44.69
12897;BME280;6516;35.028;32.372;2022-09-20T12:00:29;99347.81;;;31.77;45.21
12897;BME280;6516;35.028;32.372;2022-09-20T12:02:59;99349.38;;;31.71;45.28
12897;BME280;6516;35.028;32.372;2022-09-20T12:05:30;99341.75;;;31.67;44.04
12897;BME280;6516;35.028;32.372;2022-09-20T12:08:02;99342.47;;;31.61;44.04
12897;BME280;6516;35.028;32.372;2022-09-20T12:10:37;99336.00;;;31.62;45.65
12897;BME280;6516;35.028;32.372;2022-09-20T12:13:15;99333.16;;;31.78;44.49
12897;BME280;6516;35.028;32.372;2022-09-20T12:15:57;99336.13;;;31.68;44.37
12897;BME280;6516;35.028;32.372;2022-09-20T12:18:30;99333.75;;;31.35;47.15
12897;BME280;6516;35.028;32.372;2022-09-20T12:21:17;99332.03;;;31.42;45.20
12897;BME280;6516;35.028;32.372;2022-09-20T12:26:51;99336.56;;;31.80;46.23
12897;BME280;6516;35.028;32.372;2022-09-20T12:30:03;99335.84;;;31.86;44.48
12897;BME280;6516;35.028;32.372;2022-09-20T12:32:42;99339.25;;;31.88;42.69
12897;BME280;6516;35.028;32.372;2022-09-20T12:41:47;99331.03;;;31.35;45.36
12897;BME280;6516;35.028;32.372;2022-09-20T12:44:31;99332.97;;;31.57;46.52
12897;BME280;6516;35.028;32.372;2022-09-20T12:47:03;99331.31;;;31.48;45.44
12897;BME280;6516;35.028;32.372;2022-09-20T12:49:39;99328.19;;;31.20;43.54
12897;BME280;6516;35.028;32.372;2022-09-20T12:52:34;99314.75;;;31.19;46.92
12897;BME280;6516;35.028;32.372;2022-09-20T12:58:25;99321.91;;;30.81;46.81
12897;BME280;6516;35.028;32.372;2022-09-20T13:07:35;99329.97;;;31.05;44.93
12897;BME280;6516;35.028;32.372;2022-09-20T13:10:17;99323.66;;;31.05;45.84
12897;BME280;6516;35.028;32.372;2022-09-20T13:12:51;99328.81;;;30.92;46.03
12897;BME280;6516;35.028;32.372;2022-09-20T13:15:23;99329.50;;;30.94;46.86
12897;BME280;6516;35.028;32.372;2022-09-20T13:17:53;99323.34;;;31.00;46.86
12897;BME280;6516;35.028;32.372;2022-09-20T13:20:23;99319.28;;;30.96;48.13
12897;BME280;6516;35.028;32.372;2022-09-20T13:22:55;99318.09;;;30.98;47.97
12897;BME280;6516;35.028;32.372;2022-09-20T13:25:24;99313.34;;;31.00;47.25
12897;BME280;6516;35.028;32.372;2022-09-20T13:27:59;99311.66;;;30.91;42.70
12897;BME280;6516;35.028;32.372;2022-09-20T13:30:34;99316.00;;;30.62;47.64
12897;BME280;6516;35.028;32.372;2022-09-20T13:33:16;99310.88;;;30.67;47.82
12897;BME280;6516;35.028;32.372;2022-09-20T13:35:50;99309.25;;;30.26;49.19
12897;BME280;6516;35.028;32.372;2022-09-20T13:38:24;99315.03;;;30.39;49.40
12897;BME280;6516;35.028;32.372;2022-09-20T13:41:00;99311.28;;;30.24;49.51
12897;BME280;6516;35.028;32.372;2022-09-20T13:43:36;99322.19;;;30.16;49.81
12897;BME280;6516;35.028;32.372;2022-09-20T13:46:10;99312.31;;;30.23;50.51
12897;BME280;6516;35.028;32.372;2022-09-20T13:48:41;99315.03;;;30.23;50.78
12897;BME280;6516;35.028;32.372;2022-09-20T13:51:17;99322.19;;;30.16;49.97
12897;BME280;6516;35.028;32.372;2022-09-20T13:53:46;99317.91;;;29.97;49.91
12897;BME280;6516;35.028;32.372;2022-09-20T13:56:18;99322.31;;;29.74;50.80
12897;BME280;6516;35.028;32.372;2022-09-20T13:58:48;99324.31;;;29.56;51.08
12897;BME280;6516;35.028;32.372;2022-09-20T14:01:27;99333.91;;;29.35;54.00
12897;BME280;6516;35.028;32.372;2022-09-20T14:04:01;99331.66;;;29.30;54.37
12897;BME280;6516;35.028;32.372;2022-09-20T14:06:31;99339.22;;;29.03;53.13
12897;BME280;6516;35.028;32.372;2022-09-20T14:09:02;99339.44;;;28.84;51.53
12897;BME280;6516;35.028;32.372;2022-09-20T14:11:32;99332.84;;;28.86;53.57
12897;BME280;6516;35.028;32.372;2022-09-20T14:14:02;99327.84;;;28.74;55.06
12897;BME280;6516;35.028;32.372;2022-09-20T14:16:37;99335.53;;;28.53;54.85
12897;BME280;6516;35.028;32.372;2022-09-20T14:19:07;99326.03;;;28.49;55.82
12897;BME280;6516;35.028;32.372;2022-09-20T14:21:37;99321.78;;;28.46;55.29
12897;BME280;6516;35.028;32.372;2022-09-20T14:24:07;99315.75;;;28.35;54.07
12897;BME280;6516;35.028;32.372;2022-09-20T14:29:43;99301.78;;;28.22;54.23
12897;BME280;6516;35.028;32.372;2022-09-20T14:32:25;99308.81;;;28.15;55.18
12897;BME280;6516;35.028;32.372;2022-09-20T14:35:01;99312.44;;;27.98;57.08
12897;BME280;6516;35.028;32.372;2022-09-20T14:37:33;99310.03;;;27.95;56.63
12897;BME280;6516;35.028;32.372;2022-09-20T14:40:04;99302.06;;;27.76;56.15
12897;BME280;6516;35.028;32.372;2022-09-20T14:42:45;99306.31;;;27.78;57.73
12897;BME280;6516;35.028;32.372;2022-09-20T14:45:21;99296.72;;;27.66;58.41
12897;BME280;6516;35.028;32.372;2022-09-20T14:48:26;99291.84;;;27.52;59.56
12897;BME280;6516;35.028;32.372;2022-09-20T14:51:18;99299.13;;;27.34;59.69
12897;BME280;6516;35.028;32.372;2022-09-20T14:53:51;99304.75;;;27.23;60.21
12897;BME280;6516;35.028;32.372;2022-09-20T14:56:31;99301.06;;;27.14;59.69
12897;BME280;6516;35.028;32.372;2022-09-20T14:59:17;99306.28;;;26.98;60.72
12897;BME280;6516;35.028;32.372;2022-09-20T15:02:01;99302.47;;;26.91;62.59
12897;BME280;6516;35.028;32.372;2022-09-20T15:04:32;99303.13;;;26.76;63.34
12897;BME280;6516;35.028;32.372;2022-09-20T15:07:04;99298.06;;;26.63;63.90
12897;BME280;6516;35.028;32.372;2022-09-20T15:09:33;99293.81;;;26.61;63.50